createdAt,value
2023-04-08T00:00:50.605Z,15.60
2023-04-08T00:03:37.605Z,17.90
2023-04-08T00:06:23.893Z,18.17
2023-04-08T00:09:10.146Z,15.30
2023-04-08T00:11:58.013Z,16.63
2023-04-08T00:14:44.749Z,18.10
2023-04-08T00:17:31.409Z,15.30
2023-04-08T00:20:18.104Z,17.97
2023-04-08T00:23:04.478Z,17.03
2023-04-08T00:25:51.206Z,15.77
2023-04-08T00:28:39.042Z,16.10
2023-04-08T00:31:25.877Z,12.90
2023-04-08T00:34:12.687Z,14.30
2023-04-08T00:36:59.180Z,14.33
2023-04-08T00:39:45.437Z,14.43
2023-04-08T00:42:32.015Z,17.07
2023-04-08T00:45:20.099Z,13.43
2023-04-08T00:48:06.712Z,12.57
2023-04-08T00:50:52.869Z,12.83
2023-04-08T00:53:39.638Z,13.37
2023-04-08T00:56:26.178Z,12.07
2023-04-08T00:59:12.593Z,14.23
2023-04-08T01:02:06.442Z,15.83
2023-04-08T01:04:56.907Z,15.57
2023-04-08T01:07:46.462Z,17.30
2023-04-08T01:10:34.804Z,13.93
2023-04-08T01:13:22.943Z,14.80
2023-04-08T01:16:11.018Z,15.27
2023-04-08T01:18:59.424Z,12.73
2023-04-08T01:21:46.488Z,12.50
2023-04-08T01:24:35.094Z,11.80
2023-04-08T01:27:23.202Z,13.87
2023-04-08T01:30:10.539Z,12.80
2023-04-08T01:32:57.708Z,12.77
2023-04-08T01:35:44.624Z,16.17
2023-04-08T01:38:32.988Z,11.97
2023-04-08T01:41:19.799Z,21.40
2023-04-08T01:44:07.963Z,18.73
2023-04-08T01:46:55.088Z,13.57
2023-04-08T01:49:41.883Z,16.67
2023-04-08T01:52:29.995Z,14.30
2023-04-08T01:55:16.623Z,15.00
2023-04-08T01:58:02.773Z,13.93
2023-04-08T02:00:51.551Z,12.40
2023-04-08T02:03:38.813Z,16.93
2023-04-08T02:06:27.821Z,13.07
2023-04-08T02:09:14.081Z,14.00
2023-04-08T02:12:01.501Z,16.63
2023-04-08T02:14:47.910Z,13.73
2023-04-08T02:17:41.197Z,17.67
2023-04-08T02:20:32.307Z,13.73
2023-04-08T02:23:20.707Z,17.83
2023-04-08T02:26:09.066Z,19.63
2023-04-08T02:28:56.172Z,16.67
2023-04-08T02:31:42.952Z,15.20
2023-04-08T02:34:31.539Z,18.03
2023-04-08T02:37:17.998Z,21.87
2023-04-08T02:40:04.583Z,15.20
2023-04-08T02:42:51.163Z,17.97
2023-04-08T02:45:39.689Z,13.67
2023-04-08T02:48:26.497Z,15.00
2023-04-08T02:51:13.939Z,14.43
2023-04-08T02:54:00.418Z,12.93
2023-04-08T02:56:46.835Z,13.03
2023-04-08T02:59:33.091Z,12.43
2023-04-08T03:02:19.667Z,16.03
2023-04-08T03:05:06.784Z,14.43
2023-04-08T03:07:54.514Z,15.23
2023-04-08T03:10:40.907Z,15.10
2023-04-08T03:13:27.388Z,16.63
2023-04-08T03:16:14.051Z,14.47
2023-04-08T03:19:00.787Z,13.40
2023-04-08T03:21:46.940Z,15.50
2023-04-08T03:24:34.823Z,15.37
2023-04-08T03:27:21.245Z,14.20
2023-04-08T03:30:08.659Z,14.00
2023-04-08T03:32:55.277Z,14.27
2023-04-08T03:35:41.949Z,19.10
2023-04-08T03:38:28.152Z,16.90
2023-04-08T03:41:16.384Z,16.70
2023-04-08T03:44:02.790Z,12.50
2023-04-08T03:46:49.736Z,10.10
2023-04-08T03:49:36.503Z,10.47
2023-04-08T03:52:23.031Z,14.47
2023-04-08T03:55:09.935Z,17.33
2023-04-08T03:57:57.823Z,15.70
2023-04-08T04:00:43.906Z,11.50
2023-04-08T04:03:30.432Z,12.73
2023-04-08T04:06:16.813Z,12.23
2023-04-08T04:09:03.286Z,14.30
2023-04-08T04:11:49.892Z,13.00
2023-04-08T04:18:09.460Z,11.73
2023-04-08T04:20:56.490Z,11.80
2023-04-08T04:23:43.298Z,11.87
2023-04-08T04:26:30.043Z,13.43
2023-04-08T04:29:16.338Z,14.63
2023-04-08T04:32:04.152Z,13.20
2023-04-08T04:34:50.178Z,12.63
2023-04-08T04:37:36.803Z,11.37
2023-04-08T04:40:23.390Z,12.70
2023-04-08T04:43:09.970Z,15.67
2023-04-08T04:45:56.793Z,16.47
2023-04-08T04:48:44.596Z,15.27
2023-04-08T04:51:32.583Z,15.80
2023-04-08T04:54:19.311Z,17.03
2023-04-08T04:57:06.095Z,18.50
2023-04-08T04:59:52.842Z,16.80
2023-04-08T05:02:39.434Z,13.20
2023-04-08T05:05:27.517Z,15.50
2023-04-08T05:08:13.910Z,16.00
2023-04-08T05:11:02.260Z,12.97
2023-04-08T05:13:48.957Z,18.37
2023-04-08T05:16:35.680Z,15.77
2023-04-08T05:19:22.290Z,12.30
2023-04-08T05:22:10.117Z,12.07
2023-04-08T05:24:56.465Z,13.03
2023-04-08T05:27:42.770Z,14.20
2023-04-08T05:30:29.239Z,16.30
2023-04-08T05:33:16.386Z,12.97
2023-04-08T05:36:02.894Z,11.60
2023-04-08T05:38:50.997Z,17.17
2023-04-08T05:41:37.425Z,16.47
2023-04-08T05:44:23.773Z,12.70
2023-04-08T05:47:10.446Z,18.53
2023-04-08T05:49:57.143Z,14.17
2023-04-08T05:52:43.914Z,17.43
2023-04-08T05:55:31.702Z,16.07
2023-04-08T05:58:17.845Z,19.80
2023-04-08T06:01:04.206Z,18.07
2023-04-08T06:03:52.936Z,21.60
2023-04-08T06:06:40.044Z,17.30
2023-04-08T06:09:26.379Z,19.40
2023-04-08T06:12:13.924Z,22.40
2023-04-08T06:15:00.381Z,17.17
2023-04-08T06:17:47.203Z,22.57
2023-04-08T06:20:33.540Z,25.43
2023-04-08T06:23:20.375Z,22.83
2023-04-08T06:26:07.230Z,18.53
2023-04-08T06:28:54.784Z,17.53
2023-04-08T06:31:41.442Z,16.40
2023-04-08T06:34:27.927Z,13.60
2023-04-08T06:37:14.432Z,18.33
2023-04-08T06:40:01.135Z,25.90
2023-04-08T06:42:48.580Z,17.67
2023-04-08T06:45:36.671Z,16.00
2023-04-08T06:48:23.931Z,15.00
2023-04-08T06:51:11.593Z,17.30
2023-04-08T06:53:58.168Z,14.77
2023-04-08T06:56:44.535Z,16.10
2023-04-08T06:59:31.228Z,14.33
2023-04-08T07:02:19.457Z,15.70
2023-04-08T07:05:06.507Z,14.83
2023-04-08T07:07:52.832Z,15.77
2023-04-08T07:10:39.264Z,13.50
2023-04-08T07:13:25.631Z,18.33
2023-04-08T07:16:12.173Z,17.40
2023-04-08T07:19:00.237Z,17.30
2023-04-08T07:21:46.928Z,18.27
2023-04-08T07:24:34.374Z,18.80
2023-04-08T07:27:21.648Z,16.00
2023-04-08T07:30:08.799Z,18.10
2023-04-08T07:32:56.644Z,15.63
2023-04-08T07:35:46.128Z,18.90
2023-04-08T07:38:32.519Z,18.37
2023-04-08T07:41:19.176Z,15.57
2023-04-08T07:44:05.623Z,16.77
2023-04-08T07:46:52.069Z,15.90
2023-04-08T07:49:38.759Z,13.80
2023-04-08T07:52:26.432Z,16.00
2023-04-08T07:55:13.027Z,17.17
2023-04-08T07:57:59.692Z,16.17
2023-04-08T08:00:46.109Z,15.80
2023-04-08T08:03:34.042Z,15.83
2023-04-08T08:06:21.102Z,14.30
2023-04-08T08:09:08.942Z,15.00
2023-04-08T08:11:55.280Z,16.43
2023-04-08T08:14:41.746Z,16.37
2023-04-08T08:17:30.280Z,14.90
2023-04-08T08:20:16.781Z,19.13
2023-04-08T08:23:03.575Z,13.93
2023-04-08T08:25:51.378Z,16.27
2023-04-08T08:28:38.000Z,15.77
2023-04-08T08:31:24.290Z,15.03
2023-04-08T08:34:10.858Z,15.70
2023-04-08T08:36:57.429Z,15.63
2023-04-08T08:39:43.942Z,16.07
2023-04-08T08:42:34.266Z,14.60
2023-04-08T08:45:20.940Z,12.00
2023-04-08T08:48:07.386Z,11.43
2023-04-08T08:50:54.172Z,10.80
2023-04-08T08:53:45.261Z,14.43
2023-04-08T08:56:34.087Z,11.97
2023-04-08T08:59:21.734Z,10.90
2023-04-08T09:02:24.483Z,10.57
2023-04-08T09:05:11.001Z,10.17
2023-04-08T09:07:57.491Z,11.13
2023-04-08T09:10:43.864Z,15.43
2023-04-08T09:13:36.771Z,17.77
2023-04-08T09:16:24.666Z,8.23
2023-04-08T09:19:11.806Z,8.57
2023-04-08T09:22:08.225Z,9.57
2023-04-08T09:24:54.835Z,10.43
2023-04-08T09:27:42.252Z,9.93
2023-04-08T09:30:29.112Z,16.07
2023-04-08T09:33:17.520Z,21.10
2023-04-08T09:36:04.295Z,14.53
2023-04-08T09:38:50.967Z,10.23
2023-04-08T09:41:38.303Z,9.67
2023-04-08T09:44:27.813Z,10.80
2023-04-08T09:47:18.900Z,10.30
2023-04-08T09:50:09.157Z,9.60
2023-04-08T09:52:58.734Z,10.17
2023-04-08T09:55:45.027Z,10.70
2023-04-08T09:58:32.816Z,7.43
2023-04-08T10:01:21.386Z,9.00
2023-04-08T10:04:10.620Z,11.53
2023-04-08T10:07:04.961Z,12.53
2023-04-08T10:09:51.492Z,11.97
2023-04-08T10:12:38.082Z,25.10
2023-04-08T10:15:25.180Z,13.23
2023-04-08T10:18:29.972Z,26.10
2023-04-08T10:21:38.330Z,11.23
2023-04-08T10:24:26.450Z,12.20
2023-04-08T10:27:39.400Z,12.80
2023-04-08T10:30:44.559Z,10.27
2023-04-08T10:33:38.489Z,23.43
2023-04-08T10:36:28.154Z,18.03
2023-04-08T10:39:15.589Z,29.03
2023-04-08T10:42:04.791Z,13.30
2023-04-08T10:44:51.474Z,17.20
2023-04-08T10:47:38.300Z,11.30
2023-04-08T10:50:24.917Z,10.10
2023-04-08T10:53:11.486Z,12.27
2023-04-08T10:56:05.058Z,11.80
2023-04-08T10:58:54.224Z,10.43
2023-04-08T11:01:42.145Z,8.93
2023-04-08T11:04:28.801Z,10.67
2023-04-08T11:07:16.114Z,12.20
2023-04-08T11:10:04.174Z,7.63
2023-04-08T11:12:51.415Z,13.40
2023-04-08T11:15:39.616Z,12.07
2023-04-08T11:18:26.308Z,12.47
2023-04-08T11:21:12.641Z,10.10
2023-04-08T11:23:59.538Z,8.13
2023-04-08T11:26:45.856Z,12.13
2023-04-08T11:29:32.662Z,12.27
2023-04-08T11:32:20.129Z,8.83
2023-04-08T11:35:06.844Z,8.60
2023-04-08T11:37:54.082Z,11.83
2023-04-08T11:40:40.884Z,11.10
2023-04-08T11:43:27.417Z,9.37
2023-04-08T11:46:15.266Z,10.93
2023-04-08T11:49:04.023Z,7.97
2023-04-08T11:51:56.382Z,8.60
2023-04-08T11:54:43.413Z,9.27
2023-04-08T11:57:30.582Z,12.70
2023-04-08T12:00:17.097Z,9.07
2023-04-08T12:03:03.459Z,9.20
2023-04-08T12:05:51.179Z,10.83
2023-04-08T12:08:37.574Z,9.07
2023-04-08T12:11:24.215Z,8.23
2023-04-08T12:14:10.266Z,7.90
2023-04-08T12:16:56.725Z,7.83
2023-04-08T12:19:43.552Z,9.27
2023-04-08T12:22:31.408Z,10.00
2023-04-08T12:25:17.825Z,6.87
2023-04-08T12:28:04.294Z,10.60
2023-04-08T12:30:50.703Z,11.50
2023-04-08T12:33:36.967Z,8.87
2023-04-08T12:36:23.289Z,8.27
2023-04-08T12:39:11.294Z,7.27
2023-04-08T12:41:58.234Z,8.47
2023-04-08T12:44:44.527Z,7.13
2023-04-08T12:47:30.751Z,7.43
2023-04-08T12:50:17.440Z,8.87
2023-04-08T12:53:03.921Z,5.87
2023-04-08T12:55:51.853Z,8.03
2023-04-08T12:58:38.563Z,7.40
2023-04-08T13:01:25.170Z,9.67
2023-04-08T13:04:11.640Z,8.57
2023-04-08T13:06:59.651Z,5.73
2023-04-08T13:09:46.758Z,11.13
2023-04-08T13:12:34.455Z,6.90
2023-04-08T13:15:21.393Z,10.23
2023-04-08T13:18:08.025Z,9.20
2023-04-08T13:20:54.572Z,14.30
2023-04-08T13:27:19.816Z,9.23
2023-04-08T13:30:08.414Z,8.60
2023-04-08T13:32:55.224Z,9.53
2023-04-08T13:35:41.581Z,11.30
2023-04-08T13:38:28.326Z,12.07
2023-04-08T13:41:14.720Z,7.20
2023-04-08T13:44:00.949Z,6.73
2023-04-08T13:46:48.810Z,4.80
2023-04-08T13:49:35.536Z,12.47
2023-04-08T13:52:22.159Z,22.63
2023-04-08T13:55:09.320Z,6.50
2023-04-08T13:57:55.634Z,7.30
2023-04-08T14:00:42.461Z,5.43
2023-04-08T14:03:30.746Z,8.80
2023-04-08T14:06:17.992Z,8.67
2023-04-08T14:09:04.473Z,10.50
2023-04-08T14:11:51.570Z,9.97
2023-04-08T14:14:38.067Z,8.17
2023-04-08T14:17:24.784Z,7.17
2023-04-08T14:20:12.669Z,5.47
2023-04-08T14:22:59.199Z,5.90
2023-04-08T14:25:46.554Z,7.13
2023-04-08T14:28:33.156Z,4.63
2023-04-08T14:31:20.019Z,7.10
2023-04-08T14:34:06.434Z,5.80
2023-04-08T14:36:54.087Z,6.43
2023-04-08T14:39:40.286Z,7.00
2023-04-08T14:42:26.669Z,9.67
2023-04-08T14:45:13.722Z,8.77
2023-04-08T14:48:00.283Z,5.87
2023-04-08T14:50:47.207Z,6.77
2023-04-08T14:53:35.106Z,6.93
2023-04-08T14:56:22.155Z,10.40
2023-04-08T14:59:09.160Z,6.40
2023-04-08T15:01:56.091Z,6.93
2023-04-08T15:04:42.415Z,5.70
2023-04-08T15:07:29.603Z,8.87
2023-04-08T15:10:17.877Z,6.30
2023-04-08T15:13:04.340Z,7.03
2023-04-08T15:15:50.509Z,11.77
2023-04-08T15:18:37.581Z,9.70
2023-04-08T15:21:23.801Z,6.80
2023-04-08T15:24:10.452Z,6.90
2023-04-08T15:26:58.916Z,7.80
2023-04-08T15:29:46.223Z,9.43
2023-04-08T15:32:32.718Z,6.60
2023-04-08T15:35:19.414Z,8.57
2023-04-08T15:38:05.494Z,20.10
2023-04-08T15:40:52.632Z,15.50
2023-04-08T15:43:40.524Z,13.43
2023-04-08T15:46:27.106Z,10.53
2023-04-08T15:49:13.699Z,10.70
2023-04-08T15:52:00.415Z,10.23
2023-04-08T15:54:47.257Z,9.30
2023-04-08T15:57:33.254Z,9.97
2023-04-08T16:00:21.341Z,10.30
2023-04-08T16:03:12.024Z,10.10
2023-04-08T16:05:58.486Z,24.90
2023-04-08T16:08:47.014Z,18.17
2023-04-08T16:11:34.538Z,18.47
2023-04-08T16:14:20.912Z,13.87
2023-04-08T16:17:09.258Z,14.73
2023-04-08T16:19:55.930Z,10.63
2023-04-08T16:22:42.810Z,10.93
2023-04-08T16:25:29.499Z,14.47
2023-04-08T16:28:16.336Z,7.07
2023-04-08T16:31:04.566Z,7.13
2023-04-08T16:33:52.921Z,10.77
2023-04-08T16:36:40.272Z,9.67
2023-04-08T16:39:27.021Z,9.60
2023-04-08T16:42:13.544Z,12.37
2023-04-08T16:45:00.638Z,15.00
2023-04-08T16:47:47.932Z,10.37
2023-04-08T16:50:35.748Z,11.07
2023-04-08T16:53:23.043Z,17.03
2023-04-08T16:56:13.849Z,20.00
2023-04-08T16:59:00.791Z,14.33
2023-04-08T17:01:48.970Z,23.60
2023-04-08T17:04:35.736Z,28.10
2023-04-08T17:07:24.362Z,27.30
2023-04-08T17:10:12.234Z,32.87
2023-04-08T17:12:59.869Z,41.07
2023-04-08T17:15:47.270Z,34.17
2023-04-08T17:18:34.958Z,28.13
2023-04-08T17:21:21.671Z,21.77
2023-04-08T17:24:09.779Z,23.13
2023-04-08T17:26:57.801Z,23.53
2023-04-08T17:29:44.966Z,18.73
2023-04-08T17:32:32.276Z,15.37
2023-04-08T17:35:19.502Z,12.03
2023-04-08T17:38:06.083Z,12.40
2023-04-08T17:40:54.479Z,14.97
2023-04-08T17:43:41.428Z,14.00
2023-04-08T17:46:28.382Z,24.30
2023-04-08T17:49:15.818Z,15.03
2023-04-08T17:52:03.696Z,16.30
2023-04-08T17:54:50.566Z,10.27
2023-04-08T17:57:39.117Z,21.40
2023-04-08T18:00:26.367Z,16.73
2023-04-08T18:03:14.102Z,18.13
2023-04-08T18:06:01.385Z,17.27
2023-04-08T18:08:47.653Z,15.67
2023-04-08T18:11:34.796Z,24.70
2023-04-08T18:14:22.535Z,33.77
2023-04-08T18:17:08.962Z,28.83
2023-04-08T18:19:56.360Z,56.93
2023-04-08T18:22:43.105Z,51.53
2023-04-08T18:25:29.460Z,31.43
2023-04-08T18:28:16.573Z,26.93
2023-04-08T18:31:10.375Z,22.67
2023-04-08T18:33:58.677Z,16.07
2023-04-08T18:36:45.219Z,13.37
2023-04-08T18:39:31.594Z,12.53
2023-04-08T18:42:17.879Z,13.90
2023-04-08T18:45:05.705Z,9.83
2023-04-08T18:47:53.660Z,7.80
2023-04-08T18:50:41.103Z,9.70
2023-04-08T18:53:28.572Z,7.70
2023-04-08T18:56:16.258Z,9.90
2023-04-08T18:59:04.553Z,8.77
2023-04-08T19:01:51.294Z,9.43
2023-04-08T19:04:39.296Z,9.67
2023-04-08T19:07:25.610Z,10.87
2023-04-08T19:10:13.902Z,8.97
2023-04-08T19:13:01.536Z,9.93
2023-04-08T19:15:48.948Z,8.87
2023-04-08T19:18:36.383Z,11.23
2023-04-08T19:21:24.575Z,13.70
2023-04-08T19:24:11.853Z,17.30
2023-04-08T19:26:59.109Z,18.23
2023-04-08T19:29:46.875Z,12.57
2023-04-08T19:32:35.022Z,19.10
2023-04-08T19:35:22.050Z,13.87
2023-04-08T19:38:10.619Z,15.50
2023-04-08T19:40:57.244Z,20.97
2023-04-08T19:43:44.567Z,18.73
2023-04-08T19:46:31.171Z,25.07
2023-04-08T19:49:18.326Z,41.30
2023-04-08T19:52:05.102Z,28.60
2023-04-08T19:54:53.266Z,20.73
2023-04-08T19:57:40.421Z,21.00
2023-04-08T20:00:29.621Z,16.90
2023-04-08T20:03:17.442Z,26.20
2023-04-08T20:06:04.204Z,28.07
2023-04-08T20:08:53.710Z,26.80
2023-04-08T20:11:42.189Z,21.73
2023-04-08T20:14:28.812Z,20.53
2023-04-08T20:17:15.597Z,22.57
2023-04-08T20:20:02.357Z,22.77
2023-04-08T20:22:49.120Z,24.23
2023-04-08T20:25:36.555Z,24.57
2023-04-08T20:28:26.480Z,18.40
2023-04-08T20:31:13.287Z,18.43
2023-04-08T20:34:00.284Z,18.50
2023-04-08T20:36:46.781Z,14.40
2023-04-08T20:39:33.868Z,17.60
2023-04-08T20:42:21.834Z,18.57
2023-04-08T20:45:11.709Z,18.60
2023-04-08T20:47:58.244Z,13.90
2023-04-08T20:50:45.079Z,17.20
2023-04-08T20:53:32.336Z,13.10
2023-04-08T20:56:18.678Z,15.10
2023-04-08T20:59:04.963Z,11.57
2023-04-08T21:01:53.804Z,11.43
2023-04-08T21:04:40.914Z,12.93
2023-04-08T21:07:32.460Z,14.50
2023-04-08T21:10:21.487Z,13.17
2023-04-08T21:13:17.258Z,11.03
2023-04-08T21:16:10.465Z,13.10
2023-04-08T21:19:01.287Z,16.57
2023-04-08T21:21:49.908Z,16.93
2023-04-08T21:24:40.745Z,12.10
2023-04-08T21:27:38.264Z,17.90
2023-04-08T21:30:27.249Z,12.97
2023-04-08T21:33:20.926Z,16.37
2023-04-08T21:36:14.048Z,10.67
2023-04-08T21:39:04.750Z,11.83
2023-04-08T21:41:55.363Z,10.97
2023-04-08T21:44:53.496Z,11.70
2023-04-08T21:47:48.210Z,9.60
2023-04-08T21:50:47.390Z,12.27
2023-04-08T21:53:42.408Z,12.77
2023-04-08T21:56:29.071Z,16.17
2023-04-08T21:59:15.392Z,10.30
2023-04-08T22:02:02.339Z,14.30
2023-04-08T22:04:49.123Z,10.73
2023-04-08T22:07:35.270Z,11.43
2023-04-08T22:10:23.288Z,9.97
2023-04-08T22:13:10.229Z,10.77
2023-04-08T22:15:56.387Z,12.67
2023-04-08T22:18:42.780Z,9.37
2023-04-08T22:21:29.249Z,8.40
2023-04-08T22:24:15.718Z,11.13
2023-04-08T22:27:03.623Z,14.23
2023-04-08T22:29:50.196Z,17.83
2023-04-08T22:32:36.278Z,18.97
2023-04-08T22:35:22.748Z,11.10
2023-04-08T22:38:09.158Z,13.10
2023-04-08T22:40:55.798Z,15.73
2023-04-08T22:43:43.428Z,8.63
2023-04-08T22:46:29.949Z,10.60
2023-04-08T22:49:16.307Z,14.93
2023-04-08T22:52:03.016Z,16.13
2023-04-08T22:54:49.294Z,13.30
2023-04-08T22:57:35.793Z,12.93
2023-04-08T23:00:24.029Z,16.50
2023-04-08T23:03:10.624Z,11.60
2023-04-08T23:05:56.986Z,12.27
2023-04-08T23:08:43.566Z,13.07
2023-04-08T23:11:29.641Z,12.67
2023-04-08T23:14:16.142Z,13.43
2023-04-08T23:17:05.550Z,9.33
2023-04-08T23:19:52.094Z,13.53
2023-04-08T23:22:38.709Z,11.03
2023-04-08T23:25:25.202Z,15.07
2023-04-08T23:28:11.752Z,15.27
2023-04-08T23:30:58.235Z,17.40
2023-04-08T23:33:46.163Z,13.07
2023-04-08T23:36:32.847Z,11.03
2023-04-08T23:39:19.953Z,11.23
2023-04-08T23:42:06.176Z,11.30
2023-04-08T23:44:52.620Z,13.07
2023-04-08T23:47:38.876Z,11.03
2023-04-08T23:50:27.072Z,12.47
2023-04-08T23:53:13.472Z,12.33
2023-04-08T23:56:04.717Z,10.27
2023-04-08T23:58:51.118Z,11.77
